Time;durP1;ratioP1;P1;durP2;ratioP2;P2;SDS_P1;SDS_P2;PMS_P1;PMS_P2;Temp;Humidity;BMP_temperature;BMP_pressure;BME280_temperature;BME280_humidity;BME280_pressure;Samples;Min_cycle;Max_cycle;Signal;HPM_P1;HPM_P2
2022/09/24 00:01:37;;;;;;;17.13;15.32;;;;;;;12.53;100.00;101137.81;5265869;28;20112;-80
2022/09/24 00:04:11;;;;;;;15.60;14.00;;;;;;;12.56;100.00;101143.00;5265455;28;20035;-80
2022/09/24 00:06:45;;;;;;;16.73;15.05;;;;;;;12.44;100.00;101145.78;5266286;28;20029;-80
2022/09/24 00:09:21;;;;;;;18.33;16.48;;;;;;;12.42;100.00;101140.56;5265112;28;20040;-81
2022/09/24 00:11:52;;;;;;;17.92;15.98;;;;;;;12.43;100.00;101130.97;5266025;28;20033;-82
2022/09/24 00:14:24;;;;;;;17.63;15.93;;;;;;;12.44;100.00;101130.94;5265722;28;20059;-80
2022/09/24 00:16:56;;;;;;;17.40;15.50;;;;;;;12.43;100.00;101130.97;5266820;28;20053;-81
2022/09/24 00:19:28;;;;;;;19.03;16.13;;;;;;;12.48;100.00;101130.03;5270340;28;20084;-81
2022/09/24 00:22:00;;;;;;;17.25;15.40;;;;;;;12.37;100.00;101119.72;5280580;28;20090;-81
2022/09/24 00:27:21;;;;;;;16.52;14.88;;;;;;;12.45;100.00;101118.75;5265270;28;20119;-82
2022/09/24 00:29:52;;;;;;;17.73;15.80;;;;;;;12.39;100.00;101114.47;5264622;28;20108;-82
2022/09/24 00:32:23;;;;;;;16.97;15.37;;;;;;;12.44;100.00;101114.41;5264882;28;20057;-80
2022/09/24 00:34:55;;;;;;;17.03;14.97;;;;;;;12.45;100.00;101108.31;5264335;28;20033;-81
2022/09/24 00:37:27;;;;;;;15.40;13.83;;;;;;;12.44;100.00;101107.41;5264331;28;20064;-80
2022/09/24 00:39:58;;;;;;;16.77;15.07;;;;;;;12.48;100.00;101108.25;5265347;28;20025;-78
2022/09/24 00:42:31;;;;;;;16.53;14.93;;;;;;;12.52;100.00;101099.47;5265274;28;20055;-81
2022/09/24 00:45:04;;;;;;;;;;;;;;;12.56;100.00;101109.84;5264702;28;20400;-81
2022/09/24 00:47:39;;;;;;;18.55;15.93;;;;;;;12.52;100.00;101099.47;5264524;28;19912;-81
2022/09/24 00:50:20;;;;;;;16.52;14.73;;;;;;;12.53;100.00;101102.06;5264560;28;20029;-81
2022/09/24 00:52:57;;;;;;;15.85;14.25;;;;;;;12.41;100.00;101099.63;5264671;28;20528;-81
2022/09/24 00:55:30;;;;;;;15.32;13.73;;;;;;;12.47;100.00;101103.91;5265128;28;20036;-79
2022/09/24 00:58:04;;;;;;;15.82;14.30;;;;;;;12.43;100.00;101099.59;5263639;28;20029;-80
2022/09/24 01:00:37;;;;;;;15.38;13.80;;;;;;;12.42;100.00;101088.28;5264741;28;20024;-82
2022/09/24 01:03:13;;;;;;;16.45;13.73;;;;;;;12.40;100.00;101093.53;5264302;28;20040;-82
2022/09/24 01:05:45;;;;;;;15.45;13.85;;;;;;;12.48;100.00;101082.13;5263997;28;20433;-81
2022/09/24 01:08:18;;;;;;;15.47;13.87;;;;;;;12.44;100.00;101086.50;5263951;28;20041;-81
2022/09/24 01:10:56;;;;;;;17.45;14.40;;;;;;;12.45;100.00;101087.38;5264089;28;20029;-79
2022/09/24 01:13:39;;;;;;;14.25;12.75;;;;;;;12.45;100.00;101082.16;5264395;28;20084;-81
2022/09/24 01:16:13;;;;;;;15.65;13.85;;;;;;;12.42;100.00;101082.22;5265402;28;20055;-81
2022/09/24 01:19:14;;;;;;;15.52;14.02;;;;;;;12.47;100.00;101077.75;5264742;28;20033;-81
2022/09/24 01:21:56;;;;;;;15.55;13.98;;;;;;;12.38;100.00;101066.56;5234615;28;20048;-82
2022/09/24 01:24:56;;;;;;;15.10;13.65;;;;;;;12.42;100.00;101066.53;5264354;28;20032;-81
2022/09/24 01:27:51;;;;;;;13.48;12.23;;;;;;;12.40;100.00;101063.94;5264799;28;20029;-83
2022/09/24 01:30:24;;;;;;;19.00;12.73;;;;;;;12.38;100.00;101060.44;5264963;28;20059;-83
2022/09/24 01:33:03;;;;;;;20.45;14.45;;;;;;;12.36;100.00;101062.25;5264436;28;20471;-83
2022/09/24 01:35:42;;;;;;;14.93;12.48;;;;;;;12.40;100.00;101050.84;5263360;28;20091;-83
2022/09/24 01:38:19;;;;;;;15.85;13.77;;;;;;;12.34;100.00;101049.19;5263566;28;20033;-83
2022/09/24 01:40:52;;;;;;;13.75;12.35;;;;;;;12.36;100.00;101050.06;5264114;28;20029;-82
2022/09/24 01:43:26;;;;;;;13.85;12.45;;;;;;;12.33;100.00;101049.22;5263329;28;20029;-78
2022/09/24 01:46:01;;;;;;;14.93;13.35;;;;;;;12.36;100.00;101042.22;5262646;28;20380;-84
2022/09/24 01:48:36;;;;;;;15.10;13.60;;;;;;;12.36;100.00;101051.78;5263172;28;20104;-83
2022/09/24 01:51:10;;;;;;;16.60;13.43;;;;;;;12.34;100.00;101043.09;5263368;28;20420;-83
2022/09/24 01:53:59;;;;;;;13.88;12.48;;;;;;;12.44;100.00;101043.81;5263091;28;20479;-81
2022/09/24 01:56:41;;;;;;;15.18;12.93;;;;;;;12.37;100.00;101049.13;5263818;28;20032;-82
2022/09/24 01:59:18;;;;;;;14.63;13.13;;;;;;;12.40;100.00;101043.88;5263032;28;20075;-83
2022/09/24 02:02:01;;;;;;;16.13;14.43;;;;;;;12.38;100.00;101042.16;5262523;28;20044;-81
2022/09/24 02:04:40;;;;;;;16.67;14.02;;;;;;;12.32;100.00;101044.91;5263730;28;20025;-81
2022/09/24 02:07:25;;;;;;;15.35;13.75;;;;;;;12.30;100.00;101046.66;5262902;28;20033;-81
2022/09/24 02:09:56;;;;;;;15.75;14.13;;;;;;;12.32;100.00;101044.91;5263236;28;20076;-81
2022/09/24 02:12:39;;;;;;;16.07;14.47;;;;;;;12.30;100.00;101044.91;5267062;28;20029;-81
2022/09/24 02:15:16;;;;;;;17.13;15.13;;;;;;;12.29;100.00;101034.47;5246650;28;20078;-80
2022/09/24 02:17:54;;;;;;;16.35;14.75;;;;;;;12.24;100.00;101038.94;5235995;28;20034;-79
2022/09/24 02:20:28;;;;;;;15.88;14.18;;;;;;;12.26;100.00;101030.16;5222076;28;20030;-81
2022/09/24 02:23:02;;;;;;;17.88;16.08;;;;;;;12.32;100.00;101026.59;5220276;28;20164;-81
2022/09/24 02:25:49;;;;;;;16.60;14.88;;;;;;;12.32;100.00;101034.44;5221831;28;20057;-80
2022/09/24 02:28:21;;;;;;;17.48;15.65;;;;;;;12.30;100.00;101023.13;5221521;28;20030;-81
2022/09/24 02:31:00;;;;;;;18.05;15.80;;;;;;;12.37;100.00;101035.22;5221416;28;20041;-81
2022/09/24 02:36:24;;;;;;;17.38;15.43;;;;;;;12.40;100.00;101032.56;5221828;28;20069;-81
2022/09/24 02:38:56;;;;;;;17.15;15.00;;;;;;;12.33;100.00;101021.34;5221512;28;20414;-81
2022/09/24 02:41:30;;;;;;;20.37;16.47;;;;;;;12.32;100.00;101024.84;5221414;28;20049;-82
2022/09/24 02:44:01;;;;;;;20.85;16.42;;;;;;;12.32;100.00;101021.38;5221233;28;20065;-81
2022/09/24 02:46:33;;;;;;;17.57;15.77;;;;;;;12.33;100.00;101023.97;5221956;28;20064;-81
2022/09/24 02:49:04;;;;;;;19.47;17.37;;;;;;;12.31;100.00;101020.47;5221595;28;20029;-80
2022/09/24 02:51:35;;;;;;;18.73;16.73;;;;;;;12.30;100.00;101023.13;5221416;28;20034;-81
2022/09/24 02:54:07;;;;;;;18.20;16.40;;;;;;;12.34;100.00;101012.59;5220883;28;20125;-81
2022/09/24 02:56:39;;;;;;;19.73;17.83;;;;;;;12.31;100.00;101010.03;5221302;28;20122;-81
2022/09/24 02:59:11;;;;;;;21.70;19.50;;;;;;;12.31;100.00;101015.25;5225375;28;20101;-81
2022/09/24 03:01:42;;;;;;;21.08;18.95;;;;;;;12.29;100.00;101013.56;5225404;28;20046;-81
2022/09/24 03:04:13;;;;;;;22.40;19.77;;;;;;;12.29;100.00;101019.66;5225359;28;20041;-82
2022/09/24 03:06:45;;;;;;;24.67;22.17;;;;;;;12.27;100.00;101008.38;5225581;28;20034;-81
2022/09/24 03:09:16;;;;;;;25.33;22.63;;;;;;;12.26;100.00;101014.47;5226156;28;20095;-81
2022/09/24 03:11:49;;;;;;;24.77;22.03;;;;;;;12.27;100.00;101015.31;5240937;28;20034;-81
2022/09/24 03:14:20;;;;;;;25.85;23.02;;;;;;;12.26;100.00;101014.47;5275039;28;20368;-81
2022/09/24 03:16:51;;;;;;;26.30;23.50;;;;;;;12.22;100.00;101005.81;5266865;28;20040;-82
2022/09/24 03:19:23;;;;;;;31.63;26.33;;;;;;;12.21;100.00;101009.31;5266329;28;20033;-82
2022/09/24 03:21:54;;;;;;;30.37;26.50;;;;;;;12.21;100.00;101008.47;5266610;28;20025;-81
2022/09/24 03:24:25;;;;;;;29.67;26.47;;;;;;;12.22;100.00;100997.13;5264984;28;20033;-83
2022/09/24 03:26:57;;;;;;;28.60;25.50;;;;;;;12.21;100.00;100998.84;5266159;28;20068;-81
2022/09/24 03:32:18;;;;;;;29.65;26.42;;;;;;;12.19;100.00;101000.66;5266545;28;20029;-82
2022/09/24 03:34:49;;;;;;;31.23;27.47;;;;;;;12.21;100.00;101001.47;5266019;28;20433;-83
2022/09/24 03:37:21;;;;;;;32.40;26.97;;;;;;;12.24;100.00;100997.09;5266229;28;20033;-82
2022/09/24 03:39:52;;;;;;;32.23;27.33;;;;;;;12.24;100.00;100994.50;5265998;28;20025;-80
2022/09/24 03:42:23;;;;;;;31.93;27.07;;;;;;;12.25;100.00;101004.03;5266426;28;20029;-80
2022/09/24 03:44:55;;;;;;;29.73;26.63;;;;;;;12.21;100.00;100993.63;5265788;28;20086;-80
2022/09/24 03:47:26;;;;;;;28.97;25.77;;;;;;;12.20;100.00;100991.94;5265952;28;20037;-80
2022/09/24 03:49:58;;;;;;;29.10;26.07;;;;;;;12.20;100.00;100993.66;5265775;28;20120;-80
2022/09/24 03:52:29;;;;;;;31.77;26.50;;;;;;;12.24;100.00;100987.50;5264261;28;20029;-81
2022/09/24 03:55:01;;;;;;;29.13;25.83;;;;;;;12.21;100.00;100984.94;5265752;28;20124;-80
2022/09/24 03:57:32;;;;;;;29.17;26.00;;;;;;;12.21;100.00;100982.31;5265317;28;20064;-80
2022/09/24 04:00:04;;;;;;;28.73;25.63;;;;;;;12.20;100.00;100981.47;5265863;28;20112;-81
2022/09/24 04:02:35;;;;;;;30.20;27.00;;;;;;;12.17;100.00;100978.03;5265476;28;20043;-80
2022/09/24 04:05:07;;;;;;;28.10;25.10;;;;;;;12.15;100.00;100974.56;5265779;28;20033;-79
2022/09/24 04:07:39;;;;;;;27.70;24.90;;;;;;;12.16;100.00;100971.09;5269400;28;20056;-79
2022/09/24 04:10:11;;;;;;;30.20;26.87;;;;;;;12.17;100.00;100980.63;5288297;28;20267;-80
2022/09/24 04:12:44;;;;;;;29.98;24.80;;;;;;;12.15;100.00;100977.19;5272343;28;20029;-80
2022/09/24 04:15:16;;;;;;;29.08;25.67;;;;;;;12.16;100.00;100973.69;5265685;28;20413;-79
2022/09/24 04:17:56;;;;;;;27.13;24.17;;;;;;;12.13;100.00;100963.31;5265135;28;20087;-79
2022/09/24 04:20:28;;;;;;;28.40;25.33;;;;;;;12.12;100.00;100969.41;5266301;28;20033;-79
2022/09/24 04:22:59;;;;;;;28.63;24.52;;;;;;;12.15;100.00;100966.75;5265062;28;20082;-80
2022/09/24 04:25:31;;;;;;;27.87;25.00;;;;;;;12.12;100.00;100964.19;5265526;28;20021;-81
2022/09/24 04:28:05;;;;;;;26.65;23.67;;;;;;;12.11;100.00;100960.72;5265257;28;20392;-81
2022/09/24 04:30:37;;;;;;;27.38;23.92;;;;;;;12.17;100.00;100962.34;5264921;28;20380;-80
2022/09/24 04:33:08;;;;;;;27.60;24.52;;;;;;;12.12;100.00;100959.81;5265437;28;20017;-81
2022/09/24 04:35:40;;;;;;;26.77;23.93;;;;;;;12.12;100.00;100959.81;5265339;28;20423;-81
2022/09/24 04:38:11;;;;;;;30.93;24.67;;;;;;;12.10;100.00;100966.81;5264469;28;20078;-81
2022/09/24 04:40:44;;;;;;;31.37;25.53;;;;;;;12.10;100.00;100965.97;5263245;28;20056;-81
2022/09/24 04:43:17;;;;;;;27.05;24.05;;;;;;;12.08;100.00;100965.97;5264713;28;20041;-82
2022/09/24 04:45:48;;;;;;;27.83;24.88;;;;;;;12.08;100.00;100967.75;5264539;28;20029;-81
2022/09/24 04:48:19;;;;;;;25.70;23.07;;;;;;;12.07;100.00;100966.00;5264566;28;20055;-81
2022/09/24 04:50:51;;;;;;;26.23;23.47;;;;;;;12.10;100.00;100960.72;5265104;28;20465;-80
2022/09/24 04:53:23;;;;;;;27.93;24.40;;;;;;;12.09;100.00;100964.22;5265144;28;20112;-80
2022/09/24 04:55:54;;;;;;;26.90;23.63;;;;;;;12.09;100.00;100967.72;5265374;28;20029;-81
2022/09/24 04:58:25;;;;;;;28.17;25.17;;;;;;;12.11;100.00;100962.47;5264664;28;20541;-81
2022/09/24 05:01:02;;;;;;;28.33;25.30;;;;;;;12.10;100.00;100972.03;5263634;28;20033;-80
2022/09/24 05:03:34;;;;;;;26.52;23.63;;;;;;;12.08;100.00;100962.50;5265227;28;20510;-82
2022/09/24 05:06:05;;;;;;;26.70;23.77;;;;;;;12.11;100.00;100970.31;5264900;28;20029;-81
2022/09/24 05:08:36;;;;;;;25.33;22.50;;;;;;;12.08;100.00;100965.13;5264029;28;20083;-82
2022/09/24 05:11:08;;;;;;;24.93;22.23;;;;;;;12.09;100.00;100970.34;5264209;28;20432;-82
2022/09/24 05:13:39;;;;;;;26.63;23.73;;;;;;;12.07;100.00;100961.63;5264069;28;20080;-76
2022/09/24 05:16:10;;;;;;;24.70;22.03;;;;;;;12.08;100.00;100965.13;5264006;28;20494;-81
2022/09/24 05:18:42;;;;;;;24.57;21.97;;;;;;;12.06;100.00;100965.16;5264263;28;20079;-81
2022/09/24 05:21:14;;;;;;;23.13;20.73;;;;;;;12.02;100.00;100972.16;5263613;28;20032;-81
2022/09/24 05:23:45;;;;;;;24.13;20.90;;;;;;;12.02;100.00;100977.38;5264197;28;20460;-81
2022/09/24 05:29:07;;;;;;;22.35;19.90;;;;;;;12.00;100.00;100971.31;5263047;28;20492;-81
2022/09/24 05:31:38;;;;;;;22.13;19.87;;;;;;;12.06;100.00;100979.94;5263467;28;20029;-81
2022/09/24 05:34:10;;;;;;;22.80;20.47;;;;;;;12.02;100.00;100969.53;5263630;28;20116;-81
2022/09/24 05:36:42;;;;;;;22.73;20.17;;;;;;;12.01;100.00;100970.44;5263620;28;20112;-80
2022/09/24 05:39:13;;;;;;;20.45;18.33;;;;;;;12.04;100.00;100972.13;5263681;28;20036;-81
2022/09/24 05:41:44;;;;;;;22.33;18.67;;;;;;;12.02;100.00;100972.16;5263555;28;20143;-79
2022/09/24 05:44:20;;;;;;;27.17;19.33;;;;;;;12.01;100.00;100969.56;5263696;28;20040;-81
2022/09/24 05:46:52;;;;;;;23.23;19.02;;;;;;;11.99;100.00;100979.19;5263429;28;20045;-79
2022/09/24 05:49:23;;;;;;;19.40;17.43;;;;;;;11.99;100.00;100973.97;5263428;28;20033;-80
2022/09/24 05:51:54;;;;;;;19.27;16.87;;;;;;;12.00;100.00;100980.91;5263391;28;20166;-79
2022/09/24 05:54:26;;;;;;;20.87;17.63;;;;;;;12.00;100.00;100981.78;5263293;28;20112;-78
2022/09/24 05:56:57;;;;;;;22.10;17.57;;;;;;;11.97;100.00;100979.19;5263367;28;20036;-81
2022/09/24 05:59:29;;;;;;;20.17;17.50;;;;;;;12.00;100.00;100975.69;5263685;28;20476;-80
2022/09/24 06:02:00;;;;;;;19.37;17.37;;;;;;;12.00;100.00;100984.38;5275684;28;20033;-80
2022/09/24 06:04:31;;;;;;;21.50;17.87;;;;;;;12.00;100.00;100989.63;5287136;28;20033;-78
2022/09/24 06:07:03;;;;;;;18.77;16.83;;;;;;;12.05;100.00;100992.16;5271302;28;20095;-75
2022/09/24 06:09:34;;;;;;;20.97;18.73;;;;;;;12.02;100.00;100990.44;5262412;28;20065;-80
2022/09/24 06:12:09;;;;;;;20.73;18.50;;;;;;;12.01;100.00;100983.50;5262873;28;20033;-76
2022/09/24 06:14:41;;;;;;;20.08;18.02;;;;;;;12.02;100.00;100989.59;5263160;28;20053;-81
2022/09/24 06:17:12;;;;;;;19.97;17.97;;;;;;;12.00;100.00;100992.22;5262616;28;20033;-79
2022/09/24 06:19:44;;;;;;;19.33;17.43;;;;;;;12.03;100.00;100989.56;5262647;28;20032;-81
2022/09/24 06:22:15;;;;;;;21.70;18.63;;;;;;;12.02;100.00;100995.66;5262885;28;20033;-79
2022/09/24 06:24:47;;;;;;;22.30;19.20;;;;;;;12.02;100.00;101000.91;5262638;28;20045;-79
2022/09/24 06:27:18;;;;;;;21.60;18.70;;;;;;;12.00;100.00;100992.22;5262324;28;20083;-79
2022/09/24 06:29:49;;;;;;;22.20;17.67;;;;;;;12.00;100.00;100992.22;5262487;28;20040;-80
2022/09/24 06:32:22;;;;;;;24.00;19.73;;;;;;;12.03;100.00;100996.56;5261966;28;20025;-80
2022/09/24 06:34:54;;;;;;;21.55;18.40;;;;;;;12.05;100.00;100994.78;5262374;28;20071;-80
2022/09/24 06:37:25;;;;;;;21.40;18.57;;;;;;;12.07;100.00;101003.44;5263262;28;20033;-81
2022/09/24 06:39:56;;;;;;;22.43;19.30;;;;;;;12.10;100.00;101006.00;5262720;28;20041;-82
2022/09/24 06:42:28;;;;;;;23.93;19.53;;;;;;;12.10;100.00;100999.94;5262679;28;20506;-81
2022/09/24 06:44:59;;;;;;;22.87;18.80;;;;;;;12.11;100.00;101004.28;5262745;28;20033;-81
2022/09/24 06:47:30;;;;;;;24.73;20.63;;;;;;;12.14;100.00;101009.44;5262426;28;20510;-81
2022/09/24 06:50:02;;;;;;;20.70;18.43;;;;;;;12.13;100.00;101013.81;5262507;28;20025;-82
2022/09/24 06:52:33;;;;;;;20.37;18.30;;;;;;;12.12;100.00;101001.59;5261829;28;20083;-81
2022/09/24 06:55:05;;;;;;;21.83;19.20;;;;;;;12.16;100.00;101012.91;5263030;28;20068;-81
2022/09/24 06:57:36;;;;;;;20.43;17.83;;;;;;;12.18;100.00;101013.72;5262956;28;20480;-82
2022/09/24 07:00:11;;;;;;;20.90;18.63;;;;;;;12.18;100.00;101014.59;5269339;28;20112;-79
2022/09/24 07:02:42;;;;;;;22.42;20.13;;;;;;;12.17;100.00;101012.88;5280705;28;20382;-80
2022/09/24 07:05:13;;;;;;;22.27;19.50;;;;;;;12.17;100.00;101020.72;5274403;28;20033;-79
2022/09/24 07:07:45;;;;;;;22.37;19.17;;;;;;;12.16;100.00;101016.38;5269800;28;20029;-79
2022/09/24 07:10:16;;;;;;;21.80;19.43;;;;;;;12.19;100.00;101013.72;5264379;28;20029;-80
2022/09/24 07:12:48;;;;;;;22.40;20.00;;;;;;;12.24;100.00;101024.09;5262960;28;20500;-80
2022/09/24 07:15:19;;;;;;;23.07;19.97;;;;;;;12.26;100.00;101024.06;5262350;28;20494;-80
2022/09/24 07:17:57;;;;;;;28.37;22.63;;;;;;;12.24;100.00;101024.09;5262491;28;20108;-79
2022/09/24 07:20:28;;;;;;;22.50;19.65;;;;;;;12.25;100.00;101017.09;5262187;28;20443;-82
2022/09/24 07:22:59;;;;;;;22.37;19.90;;;;;;;12.26;100.00;101019.69;5261651;28;20111;-81
2022/09/24 07:25:31;;;;;;;22.07;19.70;;;;;;;12.28;100.00;101025.75;5260559;28;20040;-80
2022/09/24 07:28:05;;;;;;;21.33;19.03;;;;;;;12.30;100.00;101024.00;5261871;28;20044;-80
2022/09/24 07:30:37;;;;;;;21.80;19.58;;;;;;;12.31;100.00;101025.72;5262413;28;20125;-81
2022/09/24 07:33:09;;;;;;;24.80;21.70;;;;;;;12.31;100.00;101038.78;5262071;28;20025;-80
2022/09/24 07:35:40;;;;;;;22.53;20.23;;;;;;;12.30;100.00;101029.22;5260926;28;20029;-81
2022/09/24 07:38:12;;;;;;;24.80;22.17;;;;;;;12.26;100.00;101034.53;5261880;28;20290;-81
2022/09/24 07:40:43;;;;;;;23.40;21.00;;;;;;;12.28;100.00;101032.75;5262342;28;20026;-82
2022/09/24 07:43:14;;;;;;;26.80;23.30;;;;;;;12.31;100.00;101033.56;5261789;28;20036;-82
2022/09/24 07:45:47;;;;;;;23.30;20.90;;;;;;;12.24;100.00;101039.78;5265072;28;20083;-82
2022/09/24 07:48:19;;;;;;;26.70;22.83;;;;;;;12.29;100.00;101034.47;5265489;28;20029;-82
2022/09/24 07:50:50;;;;;;;26.43;23.53;;;;;;;12.25;100.00;101038.88;5265871;28;20029;-82
2022/09/24 07:53:23;;;;;;;25.73;22.20;;;;;;;12.29;100.00;101040.56;5266028;28;20025;-82
2022/09/24 07:55:57;;;;;;;24.25;21.15;;;;;;;12.31;100.00;101045.78;5269316;28;20398;-82
2022/09/24 07:58:29;;;;;;;27.05;23.13;;;;;;;12.30;100.00;101050.13;5287372;28;20024;-81
2022/09/24 08:01:01;;;;;;;24.98;22.35;;;;;;;12.36;100.00;101042.22;5273699;28;20039;-81
2022/09/24 08:03:33;;;;;;;26.25;23.40;;;;;;;12.34;100.00;101038.72;5265023;28;20048;-80
2022/09/24 08:06:05;;;;;;;23.97;21.47;;;;;;;12.36;100.00;101051.78;5265156;28;20358;-79
2022/09/24 08:08:37;;;;;;;27.30;23.73;;;;;;;12.35;100.00;101045.69;5263986;28;20083;-81
2022/09/24 08:11:11;;;;;;;;;;;;;;;12.45;100.00;101048.16;5265566;28;20083;-81
2022/09/24 08:13:43;;;;;;;23.65;21.23;;;;;;;12.42;100.00;101046.47;5264909;28;19916;-81
2022/09/24 08:16:15;;;;;;;;;;;;;;;12.50;100.00;101052.41;5265227;28;20061;-80
2022/09/24 08:18:47;;;;;;;25.60;22.85;;;;;;;12.49;100.00;101057.69;5264689;28;19967;-80
2022/09/24 08:21:18;;;;;;;23.93;21.40;;;;;;;12.49;100.00;101061.16;5265289;28;20025;-80
2022/09/24 08:23:50;;;;;;;25.67;23.00;;;;;;;12.51;100.00;101061.13;5264847;28;20039;-78
2022/09/24 08:26:21;;;;;;;24.23;21.77;;;;;;;12.48;100.00;101066.44;5265313;28;20029;-79
2022/09/24 08:28:52;;;;;;;24.67;22.17;;;;;;;12.54;100.00;101072.41;5265125;28;20108;-79
2022/09/24 08:31:24;;;;;;;22.63;20.23;;;;;;;12.52;100.00;101068.94;5264591;28;20511;-79
2022/09/24 08:33:56;;;;;;;24.50;22.00;;;;;;;12.53;100.00;101070.69;5264594;28;20029;-80
2022/09/24 08:36:27;;;;;;;25.08;22.08;;;;;;;12.56;100.00;101069.78;5265147;28;20045;-81
2022/09/24 08:38:59;;;;;;;26.43;22.10;;;;;;;12.59;100.00;101073.19;5264957;28;20028;-80
2022/09/24 08:41:48;;;;;;;25.33;22.63;;;;;;;12.63;100.00;101070.53;5264486;28;20029;-81
2022/09/24 08:47:58;;;;;;;23.98;21.58;;;;;;;12.71;100.00;101082.56;5264442;28;20041;-81
2022/09/24 08:50:33;;;;;;;24.60;21.98;;;;;;;12.75;100.00;101076.41;5264169;28;20160;-81
2022/09/24 08:53:35;;;;;;;23.65;21.05;;;;;;;12.83;100.00;101073.69;5265122;28;20372;-82
2022/09/24 08:56:09;;;;;;;24.30;21.58;;;;;;;12.75;100.00;101084.28;5263561;28;20064;-82
2022/09/24 08:58:49;;;;;;;23.55;20.85;;;;;;;12.85;100.00;101092.81;5263547;28;20476;-81
2022/09/24 09:01:28;;;;;;;24.63;22.02;;;;;;;12.82;100.00;101098.09;5264229;28;20128;-82
2022/09/24 09:04:15;;;;;;;25.73;23.05;;;;;;;12.81;100.00;101093.75;5263438;28;20076;-80
2022/09/24 09:07:18;;;;;;;24.70;22.10;;;;;;;12.91;100.00;101095.34;5263884;28;20091;-81
2022/09/24 09:09:58;;;;;;;25.52;22.92;;;;;;;12.88;100.00;101098.00;5263601;28;20112;-80
2022/09/24 09:12:39;;;;;;;23.35;21.00;;;;;;;12.85;100.00;101091.97;5264183;28;20029;-81
2022/09/24 09:15:18;;;;;;;23.92;21.50;;;;;;;12.89;100.00;101096.25;5263567;28;20029;-81
2022/09/24 09:17:59;;;;;;;24.48;21.98;;;;;;;12.82;100.00;101095.47;5263658;28;20368;-81
2022/09/24 09:20:38;;;;;;;25.92;23.15;;;;;;;12.85;100.00;101097.19;5263321;28;20040;-81
2022/09/24 09:23:19;;;;;;;25.52;22.25;;;;;;;12.86;100.00;101098.91;5264158;28;20041;-80
2022/09/24 09:25:55;;;;;;;27.05;22.23;;;;;;;12.88;100.00;101098.00;5263160;28;20111;-80
2022/09/24 09:28:27;;;;;;;25.30;22.67;;;;;;;12.90;100.00;101103.22;5263474;28;20025;-82
2022/09/24 09:31:17;;;;;;;27.10;24.02;;;;;;;12.93;100.00;101095.31;5263225;28;20036;-81
2022/09/24 09:34:00;;;;;;;24.23;21.65;;;;;;;12.96;100.00;101105.72;5263541;28;20380;-82
2022/09/24 09:36:39;;;;;;;24.65;22.10;;;;;;;12.99;100.00;101103.03;5263560;28;20040;-80
2022/09/24 09:39:40;;;;;;;25.20;22.05;;;;;;;13.11;100.00;101094.09;5264155;28;20338;-81
2022/09/24 09:42:39;;;;;;;26.45;22.98;;;;;;;13.16;100.00;101099.25;5233001;28;20087;-82
2022/09/24 09:45:48;;;;;;;23.83;21.33;;;;;;;13.16;100.00;101100.13;5265980;28;20035;-82
2022/09/24 09:48:23;;;;;;;22.83;20.42;;;;;;;13.19;100.00;101096.59;5265935;28;20064;-82
2022/09/24 09:51:03;;;;;;;23.65;21.25;;;;;;;13.28;100.00;101096.41;5284834;28;20029;-80
2022/09/24 09:53:34;;;;;;;24.40;21.75;;;;;;;13.34;100.00;101083.22;5286746;28;20021;-80
2022/09/24 09:56:07;;;;;;;22.77;20.47;;;;;;;13.39;100.00;101088.38;5265309;28;20033;-76
2022/09/24 09:58:43;;;;;;;;;;;;;;;13.61;100.00;101086.19;5263188;28;20116;-82
2022/09/24 10:01:18;;;;;;;21.02;18.77;;;;;;;13.52;100.00;101091.63;5263294;28;19913;-82
2022/09/24 10:03:50;;;;;;;21.13;18.92;;;;;;;13.52;100.00;101095.09;5263142;28;20032;-82
2022/09/24 10:06:29;;;;;;;20.80;18.43;;;;;;;13.57;100.00;101100.25;5262569;28;20059;-81
2022/09/24 10:09:11;;;;;;;22.02;17.55;;;;;;;13.59;100.00;101093.22;5262333;28;20029;-80
2022/09/24 10:11:43;;;;;;;;;;;;;;;13.76;100.00;101101.59;5263112;28;20029;-81
2022/09/24 10:14:18;;;;;;;21.02;18.83;;;;;;;13.58;100.00;101104.59;5262576;28;20274;-81
2022/09/24 10:16:54;;;;;;;20.92;18.70;;;;;;;13.64;100.00;101091.38;5262353;28;20021;-82
2022/09/24 10:19:27;;;;;;;21.08;17.92;;;;;;;13.58;100.00;101094.13;5262314;28;20107;-81
2022/09/24 10:22:08;;;;;;;21.13;18.08;;;;;;;13.57;100.00;101103.75;5262426;28;20047;-80
2022/09/24 10:24:42;;;;;;;20.83;18.63;;;;;;;13.64;100.00;101091.38;5263117;28;20175;-81
2022/09/24 10:27:25;;;;;;;22.33;20.02;;;;;;;13.74;100.00;101084.19;5262185;28;20025;-81
2022/09/24 10:32:56;;;;;;;21.75;19.13;;;;;;;13.84;100.00;101077.84;5262465;28;20041;-81
2022/09/24 10:35:37;;;;;;;19.92;17.90;;;;;;;14.01;100.00;101091.44;5262871;28;20086;-82
2022/09/24 10:38:21;;;;;;;20.23;18.13;;;;;;;14.05;100.00;101092.22;5262015;28;20422;-77
2022/09/24 10:40:53;;;;;;;18.90;17.08;;;;;;;14.01;100.00;101090.59;5262157;28;20425;-80
2022/09/24 10:43:24;;;;;;;20.27;18.20;;;;;;;14.16;100.00;101095.47;5263216;28;20075;-80
2022/09/24 10:46:21;;;;;;;21.13;17.57;;;;;;;14.28;100.00;101101.34;5263283;28;20028;-80
2022/09/24 10:49:39;;;;;;;19.17;16.48;;;;;;;14.35;100.00;101102.94;5281668;28;20021;-80
2022/09/24 10:52:35;;;;;;;18.50;16.70;;;;;;;14.31;100.00;101103.88;5267776;28;20091;-80
2022/09/24 10:55:31;;;;;;;19.70;17.55;;;;;;;14.46;100.00;101105.28;5262073;28;20029;-80
2022/09/24 10:58:40;;;;;;;18.90;16.88;;;;;;;14.49;100.00;101107.81;5262237;28;20122;-81
2022/09/24 11:01:23;;;;;;;18.13;15.68;;;;;;;14.43;99.72;101111.47;5261867;28;20033;-80
2022/09/24 11:04:19;;;;;;;18.50;16.70;;;;;;;14.56;100.00;101114.66;5261935;28;20036;-80
2022/09/24 11:07:13;;;;;;;20.02;17.52;;;;;;;14.45;99.27;101114.06;5262735;28;20433;-80
2022/09/24 11:09:55;;;;;;;20.35;17.67;;;;;;;14.45;100.00;101106.19;5262868;28;20065;-80
2022/09/24 11:12:52;;;;;;;17.95;16.10;;;;;;;14.44;98.53;101117.56;5262222;28;20083;-80
2022/09/24 11:15:42;;;;;;;18.85;17.00;;;;;;;14.56;98.28;101112.03;5261921;28;20048;-80
2022/09/24 11:18:50;;;;;;;19.70;16.27;;;;;;;14.53;97.82;101109.50;5263241;28;20025;-79
2022/09/24 11:21:29;;;;;;;17.55;15.27;;;;;;;14.60;95.89;101113.72;5266342;28;20028;-81
2022/09/24 11:24:25;;;;;;;16.05;14.35;;;;;;;14.80;97.68;101118.47;5265645;28;20033;-80
2022/09/24 11:27:25;;;;;;;16.80;15.05;;;;;;;14.93;96.16;101116.41;5266466;28;20071;-80
2022/09/24 11:30:13;;;;;;;17.65;15.15;;;;;;;14.93;94.41;101121.66;5248133;28;20068;-79
2022/09/24 11:33:05;;;;;;;16.52;14.70;;;;;;;14.91;94.94;101124.31;5266365;28;20551;-78
2022/09/24 11:35:51;;;;;;;18.27;14.75;;;;;;;14.98;93.86;101121.53;5266073;28;20037;-79
2022/09/24 11:38:54;;;;;;;14.75;13.25;;;;;;;15.01;93.85;101111.81;5265352;28;20036;-80
2022/09/24 11:41:37;;;;;;;16.50;13.73;;;;;;;14.97;92.30;101122.44;5265882;28;20036;-80
2022/09/24 11:44:21;;;;;;;15.57;13.73;;;;;;;14.93;93.21;101116.41;5265821;28;20029;-75
2022/09/24 11:47:31;;;;;;;14.32;12.50;;;;;;;14.91;92.11;101118.22;5280965;28;20107;-80
2022/09/24 11:50:20;;;;;;;12.63;11.32;;;;;;;14.92;91.59;101118.19;5266349;28;20029;-78
2022/09/24 11:52:54;;;;;;;14.32;11.75;;;;;;;14.75;90.40;101118.59;5265804;28;20329;-81
2022/09/24 11:55:33;;;;;;;11.88;10.73;;;;;;;14.79;93.46;101111.50;5265649;28;20025;-75
2022/09/24 11:58:22;;;;;;;14.18;11.10;;;;;;;14.81;92.79;101116.72;5265427;28;20025;-81
2022/09/24 12:01:04;;;;;;;12.55;10.00;;;;;;;14.75;90.75;101113.34;5265919;28;20029;-81
2022/09/24 12:03:57;;;;;;;10.93;9.75;;;;;;;14.69;91.90;101123.13;5264789;28;20036;-77